createdAt,value
2018-08-03T00:00:03.838Z,9.13
2018-08-03T00:02:32.528Z,8.50
2018-08-03T00:05:01.159Z,8.27
2018-08-03T00:07:29.900Z,8.47
2018-08-03T00:09:58.662Z,8.27
2018-08-03T00:12:27.245Z,8.30
2018-08-03T00:14:55.896Z,8.30
2018-08-03T00:17:24.577Z,9.67
2018-08-03T00:19:53.203Z,9.30
2018-08-03T00:22:21.814Z,8.37
2018-08-03T00:24:50.461Z,9.13
2018-08-03T00:27:19.193Z,8.73
2018-08-03T00:29:47.788Z,10.97
2018-08-03T00:32:16.426Z,9.47
2018-08-03T00:34:45.016Z,8.60
2018-08-03T00:37:13.661Z,8.00
2018-08-03T00:39:42.352Z,8.60
2018-08-03T00:42:10.985Z,8.47
2018-08-03T00:44:39.550Z,8.70
2018-08-03T00:47:08.216Z,9.10
2018-08-03T00:49:36.874Z,8.47
2018-08-03T00:52:05.445Z,9.23
2018-08-03T00:54:34.209Z,8.77
2018-08-03T00:57:02.821Z,8.70
2018-08-03T00:59:31.530Z,8.20
2018-08-03T01:02:00.137Z,8.43
2018-08-03T01:04:28.762Z,8.97
2018-08-03T01:06:57.382Z,8.70
2018-08-03T01:09:27.079Z,8.30
2018-08-03T01:11:55.730Z,8.53
2018-08-03T01:14:24.311Z,9.40
2018-08-03T01:16:52.919Z,8.63
2018-08-03T01:19:21.606Z,8.97
2018-08-03T01:21:50.300Z,9.07
2018-08-03T01:24:18.900Z,9.07
2018-08-03T01:26:47.524Z,10.43
2018-08-03T01:29:16.086Z,8.03
2018-08-03T01:31:44.806Z,9.80
2018-08-03T01:34:13.396Z,9.00
2018-08-03T01:36:41.995Z,9.57
2018-08-03T01:39:10.512Z,9.07
2018-08-03T01:41:39.062Z,8.57
2018-08-03T01:44:07.669Z,9.20
2018-08-03T01:46:36.215Z,8.30
2018-08-03T01:49:04.809Z,10.07
2018-08-03T01:51:33.495Z,11.07
2018-08-03T01:54:02.282Z,9.77
2018-08-03T01:56:30.997Z,10.00
2018-08-03T01:58:59.631Z,10.07
2018-08-03T02:01:28.157Z,10.30
2018-08-03T02:03:56.737Z,9.70
2018-08-03T02:06:27.937Z,10.47
2018-08-03T02:08:56.495Z,10.77
2018-08-03T02:11:25.124Z,9.97
2018-08-03T02:13:53.732Z,10.87
2018-08-03T02:16:22.408Z,11.53
2018-08-03T02:18:51.048Z,10.27
2018-08-03T02:21:19.776Z,10.60
2018-08-03T02:23:48.367Z,10.30
2018-08-03T02:26:17.022Z,10.03
2018-08-03T02:28:45.626Z,10.70
2018-08-03T02:31:14.256Z,10.20
2018-08-03T02:33:42.986Z,10.87
2018-08-03T02:36:11.569Z,10.40
2018-08-03T02:38:40.181Z,11.43
2018-08-03T02:41:08.804Z,13.27
2018-08-03T02:43:37.487Z,10.97
2018-08-03T02:46:06.333Z,11.23
2018-08-03T02:48:34.916Z,10.63
2018-08-03T02:51:03.513Z,10.90
2018-08-03T02:53:34.409Z,9.87
2018-08-03T02:56:02.999Z,10.13
2018-08-03T02:58:31.679Z,10.23
2018-08-03T03:01:00.261Z,10.07
2018-08-03T03:03:28.925Z,10.97
2018-08-03T03:05:57.527Z,10.13
2018-08-03T03:08:26.299Z,9.90
2018-08-03T03:10:54.901Z,10.03
2018-08-03T03:13:23.626Z,9.63
2018-08-03T03:15:52.236Z,11.67
2018-08-03T03:18:20.837Z,11.40
2018-08-03T03:20:49.525Z,9.53
2018-08-03T03:23:18.207Z,9.97
2018-08-03T03:25:46.804Z,10.87
2018-08-03T03:28:15.446Z,10.17
2018-08-03T03:30:44.091Z,9.80
2018-08-03T03:33:12.708Z,10.30
2018-08-03T03:35:41.415Z,13.07
2018-08-03T03:38:10.196Z,10.20
2018-08-03T03:40:38.843Z,9.80
2018-08-03T03:43:07.443Z,11.00
2018-08-03T03:45:36.086Z,11.63
2018-08-03T03:48:04.722Z,9.73
2018-08-03T03:50:33.431Z,9.67
2018-08-03T03:53:02.103Z,9.33
2018-08-03T03:55:30.709Z,10.73
2018-08-03T03:57:59.317Z,10.10
2018-08-03T04:00:27.992Z,9.87
2018-08-03T04:02:56.636Z,8.60
2018-08-03T04:05:25.377Z,10.13
2018-08-03T04:07:54.051Z,9.53
2018-08-03T04:10:22.716Z,9.73
2018-08-03T04:12:51.301Z,9.60
2018-08-03T04:15:19.951Z,9.40
2018-08-03T04:17:48.584Z,9.73
2018-08-03T04:20:17.219Z,10.43
2018-08-03T04:22:45.863Z,10.63
2018-08-03T04:25:14.511Z,11.30
2018-08-03T04:27:43.195Z,11.47
2018-08-03T04:30:11.880Z,10.50
2018-08-03T04:32:40.488Z,10.33
2018-08-03T04:35:09.120Z,11.20
2018-08-03T04:37:37.763Z,10.80
2018-08-03T04:40:06.542Z,9.47
2018-08-03T04:42:35.292Z,10.40
2018-08-03T04:45:04.032Z,13.00
2018-08-03T04:47:32.644Z,10.33
2018-08-03T04:50:01.328Z,10.27
2018-08-03T04:52:29.972Z,10.03
2018-08-03T04:54:58.686Z,12.73
2018-08-03T04:57:27.308Z,10.00
2018-08-03T04:59:55.940Z,10.10
2018-08-03T05:02:24.546Z,10.37
2018-08-03T05:04:53.157Z,9.43
2018-08-03T05:07:21.759Z,11.00
2018-08-03T05:09:50.306Z,10.83
2018-08-03T05:12:18.864Z,9.53
2018-08-03T05:14:47.436Z,9.60
2018-08-03T05:17:16.052Z,14.07
2018-08-03T05:19:51.652Z,10.70
2018-08-03T05:22:20.267Z,10.57
2018-08-03T05:24:48.922Z,11.40
2018-08-03T05:27:17.588Z,10.47
2018-08-03T05:29:46.195Z,11.40
2018-08-03T05:32:14.828Z,11.73
2018-08-03T05:34:43.501Z,12.37
2018-08-03T05:37:12.283Z,12.77
2018-08-03T05:39:40.871Z,12.20
2018-08-03T05:42:09.471Z,13.10
2018-08-03T05:44:38.045Z,12.23
2018-08-03T05:47:06.618Z,12.60
2018-08-03T05:49:35.271Z,12.50
2018-08-03T05:52:03.987Z,13.47
2018-08-03T05:54:32.632Z,11.23
2018-08-03T05:57:01.256Z,12.27
2018-08-03T05:59:30.125Z,11.73
2018-08-03T06:01:58.716Z,12.77
2018-08-03T06:04:27.309Z,11.90
2018-08-03T06:06:55.970Z,11.53
2018-08-03T06:09:24.572Z,11.40
2018-08-03T06:11:53.146Z,12.97
2018-08-03T06:14:21.756Z,11.20
2018-08-03T06:16:50.401Z,11.83
2018-08-03T06:19:18.984Z,11.80
2018-08-03T06:21:47.671Z,10.57
2018-08-03T06:24:16.396Z,11.10
2018-08-03T06:26:44.981Z,14.77
2018-08-03T06:29:13.661Z,11.67
2018-08-03T06:31:42.345Z,11.10
2018-08-03T06:37:03.784Z,11.17
2018-08-03T06:39:32.380Z,11.50
2018-08-03T06:42:01.249Z,12.07
2018-08-03T06:44:30.162Z,12.40
2018-08-03T06:46:58.829Z,13.50
2018-08-03T06:49:27.511Z,13.07
2018-08-03T06:51:56.190Z,13.20
2018-08-03T06:54:24.890Z,14.90
2018-08-03T06:56:53.521Z,10.57
2018-08-03T06:59:22.273Z,11.43
2018-08-03T07:01:50.922Z,12.67
2018-08-03T07:04:19.724Z,13.33
2018-08-03T07:06:54.133Z,10.30
2018-08-03T07:09:22.829Z,10.57
2018-08-03T07:11:51.444Z,11.53
2018-08-03T07:14:20.065Z,11.63
2018-08-03T07:16:48.756Z,10.17
2018-08-03T07:19:17.352Z,10.80
2018-08-03T07:21:51.081Z,12.03
2018-08-03T07:24:19.761Z,10.50
2018-08-03T07:26:48.407Z,10.43
2018-08-03T07:29:17.594Z,11.93
2018-08-03T07:31:46.240Z,11.07
2018-08-03T07:34:14.873Z,11.50
2018-08-03T07:36:43.466Z,10.50
2018-08-03T07:39:12.652Z,10.67
2018-08-03T07:41:41.344Z,10.13
2018-08-03T07:44:09.962Z,10.37
2018-08-03T07:46:38.561Z,10.73
2018-08-03T07:49:07.245Z,9.93
2018-08-03T07:51:35.813Z,10.20
2018-08-03T07:54:04.416Z,9.37
2018-08-03T07:56:33.025Z,9.10
2018-08-03T07:59:01.641Z,9.30
2018-08-03T08:01:30.279Z,10.60
2018-08-03T08:03:58.856Z,8.90
2018-08-03T08:06:27.509Z,9.33
2018-08-03T08:08:56.149Z,9.03
2018-08-03T08:11:24.707Z,12.47
2018-08-03T08:13:53.270Z,8.77
2018-08-03T08:16:21.811Z,11.60
2018-08-03T08:18:50.385Z,9.47
2018-08-03T08:21:18.952Z,9.73
2018-08-03T08:23:47.628Z,9.20
2018-08-03T08:26:16.351Z,7.80
2018-08-03T08:31:50.468Z,8.60
2018-08-03T08:34:19.034Z,8.30
2018-08-03T08:36:47.576Z,9.13
2018-08-03T08:39:16.171Z,9.63
2018-08-03T08:41:44.767Z,8.70
2018-08-03T08:44:14.003Z,8.10
2018-08-03T08:46:42.889Z,9.97
2018-08-03T08:49:11.436Z,8.20
2018-08-03T08:51:39.987Z,8.57
2018-08-03T08:54:08.542Z,8.40
2018-08-03T08:56:37.109Z,8.70
2018-08-03T08:59:05.642Z,8.27
2018-08-03T09:01:34.303Z,10.43
2018-08-03T09:04:02.916Z,8.27
2018-08-03T09:06:31.502Z,8.93
2018-08-03T09:09:00.031Z,11.20
2018-08-03T09:11:28.719Z,11.07
2018-08-03T09:13:59.591Z,8.93
2018-08-03T09:16:28.122Z,12.70
2018-08-03T09:18:56.667Z,9.47
2018-08-03T09:21:25.271Z,8.00
2018-08-03T09:23:53.840Z,8.20
2018-08-03T09:26:22.447Z,8.20
2018-08-03T09:28:51.053Z,9.00
2018-08-03T09:31:19.637Z,11.10
2018-08-03T09:33:54.412Z,8.10
2018-08-03T09:36:23.069Z,8.17
2018-08-03T09:38:51.612Z,7.87
2018-08-03T09:41:20.210Z,8.80
2018-08-03T09:43:50.162Z,7.33
2018-08-03T09:46:18.710Z,8.43
2018-08-03T09:48:47.386Z,8.27
2018-08-03T09:51:16.248Z,8.40
2018-08-03T09:53:44.996Z,8.17
2018-08-03T09:56:13.610Z,7.97
2018-08-03T09:58:42.296Z,8.13
2018-08-03T10:01:12.094Z,13.07
2018-08-03T10:03:58.516Z,7.97
2018-08-03T10:06:27.099Z,8.83
2018-08-03T10:08:55.845Z,11.67
2018-08-03T10:11:25.039Z,17.43
2018-08-03T10:13:53.742Z,7.67
2018-08-03T10:16:22.333Z,8.23
2018-08-03T10:18:51.079Z,7.37
2018-08-03T10:21:19.716Z,8.40
2018-08-03T10:23:48.327Z,8.33
2018-08-03T10:26:16.963Z,8.27
2018-08-03T10:28:45.665Z,8.80
2018-08-03T10:31:14.259Z,7.57
2018-08-03T10:33:43.067Z,8.37
2018-08-03T10:36:11.612Z,7.90
2018-08-03T10:38:40.227Z,7.57
2018-08-03T10:41:08.910Z,8.47
2018-08-03T10:43:37.730Z,7.50
2018-08-03T10:46:06.267Z,8.13
2018-08-03T10:48:34.929Z,7.10
2018-08-03T10:51:03.636Z,6.80
2018-08-03T10:53:32.322Z,7.23
2018-08-03T10:56:00.986Z,8.70
2018-08-03T10:58:29.576Z,10.03
2018-08-03T11:00:58.200Z,7.37
2018-08-03T11:03:26.914Z,6.57
2018-08-03T11:05:55.479Z,6.70
2018-08-03T11:08:25.100Z,6.87
2018-08-03T11:10:53.960Z,7.03
2018-08-03T11:13:23.775Z,10.73
2018-08-03T11:15:52.749Z,6.90
2018-08-03T11:18:21.592Z,8.90
2018-08-03T11:20:50.131Z,6.77
2018-08-03T11:23:18.954Z,8.63
2018-08-03T11:25:47.717Z,6.43
2018-08-03T11:28:16.567Z,7.03
2018-08-03T11:30:45.243Z,6.67
2018-08-03T11:33:14.176Z,6.53
2018-08-03T11:35:43.081Z,6.70
2018-08-03T11:38:11.824Z,8.17
2018-08-03T11:40:41.985Z,6.07
2018-08-03T11:43:10.581Z,6.10
2018-08-03T11:45:39.230Z,7.20
2018-08-03T11:48:07.827Z,6.20
2018-08-03T11:50:36.463Z,6.05
2018-08-03T11:53:05.147Z,6.30
2018-08-03T11:55:33.709Z,7.47
2018-08-03T11:58:02.407Z,6.00
2018-08-03T12:00:31.061Z,5.97
2018-08-03T12:02:59.776Z,5.80
2018-08-03T12:05:28.376Z,5.87
2018-08-03T12:07:58.300Z,6.87
2018-08-03T12:10:26.955Z,6.30
2018-08-03T12:12:55.581Z,5.77
2018-08-03T12:15:24.187Z,5.70
2018-08-03T12:17:52.765Z,6.97
2018-08-03T12:20:21.252Z,5.87
2018-08-03T12:22:50.700Z,6.03
2018-08-03T12:25:19.279Z,9.50
2018-08-03T12:27:47.870Z,6.03
2018-08-03T12:30:16.429Z,5.50
2018-08-03T12:32:45.002Z,5.73
2018-08-03T12:35:13.639Z,5.73
2018-08-03T12:37:43.267Z,6.13
2018-08-03T12:40:11.807Z,5.57
2018-08-03T12:42:40.360Z,5.70
2018-08-03T12:45:08.911Z,6.37
2018-08-03T12:47:37.521Z,5.97
2018-08-03T12:50:06.085Z,5.73
2018-08-03T12:52:34.649Z,5.70
2018-08-03T12:55:03.258Z,8.50
2018-08-03T12:57:31.865Z,6.10
2018-08-03T13:00:00.428Z,5.53
2018-08-03T13:02:29.000Z,6.13
2018-08-03T13:04:57.615Z,6.33
2018-08-03T13:07:26.232Z,6.22
2018-08-03T13:09:54.773Z,7.17
2018-08-03T13:12:23.400Z,5.43
2018-08-03T13:14:52.020Z,5.80
2018-08-03T13:17:20.595Z,5.62
2018-08-03T13:19:49.225Z,6.12
2018-08-03T13:22:20.782Z,6.22
2018-08-03T13:24:49.774Z,6.30
2018-08-03T13:27:18.946Z,5.67
2018-08-03T13:29:47.467Z,6.83
2018-08-03T13:32:16.095Z,7.07
2018-08-03T13:34:44.775Z,5.47
2018-08-03T13:37:13.746Z,6.53
2018-08-03T13:39:42.872Z,6.55
2018-08-03T13:42:11.819Z,6.17
2018-08-03T13:44:40.612Z,6.03
2018-08-03T13:47:12.935Z,6.78
2018-08-03T13:49:41.673Z,6.20
2018-08-03T13:52:10.756Z,5.83
2018-08-03T13:54:39.291Z,5.42
2018-08-03T13:57:07.852Z,6.00
2018-08-03T13:59:36.373Z,5.20
2018-08-03T14:02:18.215Z,5.55
2018-08-03T14:04:46.800Z,5.20
2018-08-03T14:07:15.348Z,7.53
2018-08-03T14:09:43.899Z,8.28
2018-08-03T14:12:12.469Z,6.17
2018-08-03T14:14:41.732Z,5.40
2018-08-03T14:17:11.101Z,5.60
2018-08-03T14:19:40.211Z,5.40
2018-08-03T14:22:09.112Z,5.60
2018-08-03T14:24:37.953Z,5.15
2018-08-03T14:27:08.580Z,5.75
2018-08-03T14:29:43.710Z,5.75
2018-08-03T14:32:13.470Z,6.70
2018-08-03T14:34:42.268Z,5.87
2018-08-03T14:37:11.375Z,5.40
2018-08-03T14:45:25.189Z,5.90
2018-08-03T14:47:53.738Z,4.78
2018-08-03T14:50:22.479Z,5.42
2018-08-03T14:52:51.204Z,6.08
2018-08-03T14:55:20.899Z,5.37
2018-08-03T14:57:50.739Z,5.00
2018-08-03T15:00:19.307Z,10.20
2018-08-03T15:02:47.828Z,5.20
2018-08-03T15:05:16.414Z,5.30
2018-08-03T15:07:45.020Z,5.30
2018-08-03T15:10:13.825Z,5.42
2018-08-03T15:12:42.436Z,6.62
2018-08-03T15:15:11.060Z,5.40
2018-08-03T15:17:39.654Z,5.25
2018-08-03T15:20:09.142Z,5.72
2018-08-03T15:22:37.693Z,7.12
2018-08-03T15:25:06.299Z,5.12
2018-08-03T15:27:34.889Z,4.92
2018-08-03T15:30:03.559Z,7.22
2018-08-03T15:32:32.158Z,5.72
2018-08-03T15:35:00.724Z,5.58
2018-08-03T15:37:29.260Z,5.08
2018-08-03T15:39:57.803Z,4.95
2018-08-03T15:42:26.351Z,5.10
2018-08-03T15:44:54.979Z,4.78
2018-08-03T15:47:23.529Z,5.58
2018-08-03T15:49:52.044Z,5.15
2018-08-03T15:52:20.571Z,6.53
2018-08-03T15:54:49.107Z,5.12
2018-08-03T15:57:17.627Z,4.72
2018-08-03T15:59:46.117Z,4.95
2018-08-03T16:02:14.693Z,7.37
2018-08-03T16:04:43.648Z,6.22
2018-08-03T16:07:12.255Z,4.53
2018-08-03T16:09:40.788Z,4.83
2018-08-03T16:12:09.377Z,5.45
2018-08-03T16:14:37.919Z,6.00
2018-08-03T16:17:06.656Z,8.03
2018-08-03T16:19:35.217Z,4.97
2018-08-03T16:22:03.993Z,6.70
2018-08-03T16:24:32.561Z,8.10
2018-08-03T16:27:01.355Z,5.28
2018-08-03T16:29:29.892Z,17.17
2018-08-03T16:31:58.447Z,11.03
2018-08-03T16:34:26.988Z,5.30
2018-08-03T16:36:55.562Z,4.90
2018-08-03T16:39:30.511Z,5.28
2018-08-03T16:41:59.249Z,10.53
2018-08-03T16:44:29.020Z,6.70
2018-08-03T16:46:57.756Z,6.92
2018-08-03T16:49:26.272Z,5.25
2018-08-03T16:51:54.927Z,4.92
2018-08-03T16:54:23.629Z,5.50
2018-08-03T16:56:52.259Z,5.47
2018-08-03T16:59:20.785Z,4.95
2018-08-03T17:01:49.347Z,5.00
2018-08-03T17:04:17.957Z,4.47
2018-08-03T17:06:46.544Z,4.55
2018-08-03T17:09:15.080Z,4.60
2018-08-03T17:11:43.895Z,4.92
2018-08-03T17:14:12.433Z,4.60
2018-08-03T17:16:40.948Z,6.83
2018-08-03T17:19:09.518Z,6.05
2018-08-03T17:21:38.135Z,4.50
2018-08-03T17:24:06.655Z,4.45
2018-08-03T17:26:35.211Z,5.10
2018-08-03T17:29:03.820Z,4.95
2018-08-03T17:31:32.364Z,5.45
2018-08-03T17:34:00.851Z,4.80
2018-08-03T17:36:29.411Z,5.03
2018-08-03T17:38:57.919Z,6.72
2018-08-03T17:41:26.511Z,4.72
2018-08-03T17:43:55.088Z,5.65
2018-08-03T17:46:23.640Z,4.37
2018-08-03T17:48:52.139Z,4.60
2018-08-03T17:51:20.677Z,4.83
2018-08-03T17:53:49.304Z,4.65
2018-08-03T17:56:17.795Z,5.75
2018-08-03T17:58:46.409Z,7.40
2018-08-03T18:01:15.066Z,4.67
2018-08-03T18:03:43.661Z,4.42
2018-08-03T18:06:12.183Z,4.12
2018-08-03T18:08:40.915Z,4.50
2018-08-03T18:11:09.551Z,4.57
2018-08-03T18:13:38.308Z,4.43
2018-08-03T18:16:07.057Z,4.33
2018-08-03T18:18:35.595Z,5.03
2018-08-03T18:21:04.096Z,4.40
2018-08-03T18:23:32.897Z,4.70
2018-08-03T18:26:01.448Z,4.80
2018-08-03T18:28:30.069Z,7.03
2018-08-03T18:30:58.637Z,6.43
2018-08-03T18:33:27.255Z,4.97
2018-08-03T18:35:55.888Z,9.07
2018-08-03T18:38:24.504Z,5.33
2018-08-03T18:40:53.116Z,7.63
2018-08-03T18:43:21.670Z,5.43
2018-08-03T18:45:50.255Z,5.73
2018-08-03T18:48:18.813Z,13.20
2018-08-03T18:50:47.407Z,9.27
2018-08-03T18:53:15.952Z,7.30
2018-08-03T18:55:44.563Z,7.70
2018-08-03T18:58:13.225Z,5.90
2018-08-03T19:00:41.744Z,6.37
2018-08-03T19:03:10.397Z,10.07
2018-08-03T19:05:38.948Z,6.43
2018-08-03T19:08:07.541Z,5.87
2018-08-03T19:10:36.153Z,5.27
2018-08-03T19:13:04.724Z,5.90
2018-08-03T19:15:33.352Z,9.00
2018-08-03T19:18:01.928Z,6.43
2018-08-03T19:20:30.452Z,5.87
2018-08-03T19:22:59.153Z,6.10
2018-08-03T19:25:27.781Z,5.83
2018-08-03T19:27:56.364Z,6.27
2018-08-03T19:30:25.218Z,5.67
2018-08-03T19:32:54.733Z,6.30
2018-08-03T19:35:33.394Z,6.87
2018-08-03T19:38:02.000Z,6.13
2018-08-03T19:40:31.578Z,5.50
2018-08-03T19:43:00.248Z,6.27
2018-08-03T19:45:28.821Z,6.03
2018-08-03T19:47:57.384Z,6.20
2018-08-03T19:50:25.972Z,6.73
2018-08-03T19:52:54.550Z,6.57
2018-08-03T19:55:23.136Z,6.17
2018-08-03T19:57:52.608Z,8.63
2018-08-03T20:00:21.172Z,5.83
2018-08-03T20:02:49.880Z,6.47
2018-08-03T20:05:18.482Z,9.93
2018-08-03T20:07:47.139Z,6.73
2018-08-03T20:10:15.744Z,9.73
2018-08-03T20:12:44.335Z,8.73
2018-08-03T20:15:12.976Z,6.33
2018-08-03T20:17:41.554Z,6.57
2018-08-03T20:20:10.195Z,9.17
2018-08-03T20:22:38.711Z,8.30
2018-08-03T20:25:07.372Z,7.60
2018-08-03T20:27:36.032Z,8.67
2018-08-03T20:30:05.608Z,7.57
2018-08-03T20:32:34.193Z,7.60
2018-08-03T20:35:02.868Z,7.37
2018-08-03T20:37:32.374Z,13.13
2018-08-03T20:40:01.672Z,7.57
2018-08-03T20:42:30.421Z,9.13
2018-08-03T20:44:59.054Z,8.17
2018-08-03T20:47:27.752Z,8.00
2018-08-03T20:49:57.141Z,7.57
2018-08-03T20:52:25.828Z,8.33
2018-08-03T20:54:54.504Z,9.17
2018-08-03T20:57:23.409Z,9.63
2018-08-03T20:59:52.049Z,7.27
2018-08-03T21:02:21.140Z,8.17
2018-08-03T21:04:50.055Z,14.77
2018-08-03T21:07:18.671Z,10.50
2018-08-03T21:09:48.160Z,7.43
2018-08-03T21:12:17.412Z,8.43
2018-08-03T21:14:46.623Z,6.93
2018-08-03T21:17:15.345Z,7.50
2018-08-03T21:19:44.021Z,8.83
2018-08-03T21:22:13.004Z,8.83
2018-08-03T21:24:41.919Z,8.63
2018-08-03T21:27:10.536Z,9.60
2018-08-03T21:29:39.166Z,7.30
2018-08-03T21:32:08.641Z,7.00
2018-08-03T21:34:37.258Z,8.27
2018-08-03T21:37:06.253Z,7.10
2018-08-03T21:39:34.977Z,7.43
2018-08-03T21:42:04.004Z,7.60
2018-08-03T21:44:33.003Z,9.77
2018-08-03T21:47:01.760Z,8.73
2018-08-03T21:49:30.415Z,10.80
2018-08-03T21:51:59.027Z,8.40
2018-08-03T21:54:27.701Z,10.67
2018-08-03T21:56:56.700Z,7.77
2018-08-03T21:59:25.979Z,8.30
2018-08-03T22:01:54.839Z,7.60
2018-08-03T22:04:23.940Z,7.87
2018-08-03T22:06:53.342Z,8.10
2018-08-03T22:09:23.203Z,7.73
2018-08-03T22:11:51.940Z,7.20
2018-08-03T22:14:21.019Z,7.70
2018-08-03T22:16:49.760Z,7.80
2018-08-03T22:19:19.082Z,9.73
2018-08-03T22:21:48.268Z,8.07
2018-08-03T22:24:16.879Z,8.23
2018-08-03T22:26:45.489Z,9.30
2018-08-03T22:29:14.139Z,7.07
2018-08-03T22:31:42.728Z,7.87
2018-08-03T22:34:11.339Z,8.10
2018-08-03T22:36:39.916Z,8.50
2018-08-03T22:39:09.217Z,12.80
2018-08-03T22:41:38.076Z,8.20
2018-08-03T22:44:06.772Z,8.03
2018-08-03T22:46:35.374Z,7.60
2018-08-03T22:49:03.968Z,7.83
2018-08-03T22:51:32.526Z,8.17
2018-08-03T22:54:01.086Z,8.47
2018-08-03T22:56:29.671Z,9.43
2018-08-03T22:58:58.255Z,8.40
2018-08-03T23:01:26.799Z,9.13
2018-08-03T23:03:55.408Z,8.07
2018-08-03T23:06:24.075Z,7.77
2018-08-03T23:08:52.724Z,7.70
2018-08-03T23:11:21.284Z,8.13
2018-08-03T23:13:49.959Z,7.87
2018-08-03T23:16:18.527Z,8.33
2018-08-03T23:18:47.144Z,8.07
2018-08-03T23:21:15.732Z,8.23
2018-08-03T23:23:44.326Z,7.93
2018-08-03T23:26:12.840Z,8.23
2018-08-03T23:28:41.531Z,7.73
2018-08-03T23:31:10.147Z,7.73
2018-08-03T23:33:38.784Z,8.17
2018-08-03T23:36:07.403Z,7.90
2018-08-03T23:38:36.096Z,7.90
2018-08-03T23:41:04.704Z,7.60
2018-08-03T23:43:33.358Z,8.60
2018-08-03T23:46:01.971Z,8.70
2018-08-03T23:48:30.548Z,8.13
2018-08-03T23:50:59.117Z,7.87
2018-08-03T23:53:27.836Z,10.80
2018-08-03T23:55:56.450Z,7.77
2018-08-03T23:58:25.192Z,8.60
